createdAt,value
2018-04-25T00:02:20.198Z,79.60
2018-04-25T00:04:47.693Z,79.60
2018-04-25T00:07:15.174Z,80.10
2018-04-25T00:09:42.715Z,80.30
2018-04-25T00:12:10.167Z,80.40
2018-04-25T00:14:37.665Z,80.90
2018-04-25T00:17:05.139Z,80.90
2018-04-25T00:19:32.635Z,81.60
2018-04-25T00:22:00.122Z,81.70
2018-04-25T00:24:27.650Z,81.70
2018-04-25T00:26:55.105Z,82.30
2018-04-25T00:29:22.581Z,82.50
2018-04-25T00:31:50.069Z,82.80
2018-04-25T00:34:17.566Z,83.00
2018-04-25T00:36:45.066Z,83.10
2018-04-25T00:39:12.546Z,83.20
2018-04-25T00:41:40.053Z,83.20
2018-04-25T00:44:07.525Z,83.00
2018-04-25T00:46:35.795Z,83.40
2018-04-25T00:49:03.269Z,83.40
2018-04-25T00:51:30.770Z,83.50
2018-04-25T00:53:58.256Z,83.60
2018-04-25T00:56:25.753Z,83.80
2018-04-25T00:58:53.240Z,84.00
2018-04-25T01:01:20.738Z,84.10
2018-04-25T01:03:48.213Z,84.10
2018-04-25T01:06:15.714Z,84.10
2018-04-25T01:08:43.193Z,84.10
2018-04-25T01:11:10.690Z,84.00
2018-04-25T01:13:38.169Z,84.10
2018-04-25T01:16:05.661Z,84.10
2018-04-25T01:18:33.146Z,84.10
2018-04-25T01:21:00.636Z,84.00
2018-04-25T01:23:28.122Z,83.80
2018-04-25T01:26:01.284Z,83.90
2018-04-25T01:28:52.340Z,83.80
2018-04-25T01:31:21.753Z,84.00
2018-04-25T01:33:55.017Z,84.10
2018-04-25T01:36:29.224Z,84.20
2018-04-25T01:38:56.705Z,84.10
2018-04-25T01:41:24.197Z,84.40
2018-04-25T01:43:51.786Z,84.50
2018-04-25T01:46:30.126Z,84.60
2018-04-25T01:52:17.665Z,84.20
2018-04-25T01:54:56.934Z,84.40
2018-04-25T01:57:36.127Z,84.20
2018-04-25T02:00:15.293Z,84.10
2018-04-25T02:02:42.306Z,84.10
2018-04-25T02:05:09.797Z,84.40
2018-04-25T02:07:37.305Z,84.50
2018-04-25T02:10:04.799Z,84.40
2018-04-25T02:12:32.310Z,84.50
2018-04-25T02:14:59.798Z,84.70
2018-04-25T02:17:27.297Z,84.70
2018-04-25T02:19:54.781Z,84.80
2018-04-25T02:22:22.322Z,84.70
2018-04-25T02:24:49.785Z,85.10
2018-04-25T02:27:17.294Z,85.00
2018-04-25T02:29:44.797Z,85.20
2018-04-25T02:32:13.073Z,85.50
2018-04-25T02:34:40.567Z,86.60
2018-04-25T02:37:08.058Z,85.30
2018-04-25T02:39:35.563Z,85.40
2018-04-25T02:42:03.046Z,86.50
2018-04-25T02:44:30.548Z,85.20
2018-04-25T02:46:58.037Z,86.70
2018-04-25T02:49:25.548Z,86.80
2018-04-25T02:51:53.031Z,86.70
2018-04-25T02:54:20.541Z,86.40
2018-04-25T02:56:48.053Z,86.40
2018-04-25T02:59:15.554Z,86.50
2018-04-25T03:01:43.046Z,86.30
2018-04-25T03:04:10.551Z,86.50
2018-04-25T03:06:38.045Z,86.70
2018-04-25T03:09:05.545Z,86.90
2018-04-25T03:11:33.033Z,86.80
2018-04-25T03:14:00.535Z,86.90
2018-04-25T03:16:28.030Z,86.90
2018-04-25T03:18:55.537Z,86.90
2018-04-25T03:21:23.017Z,88.50
2018-04-25T03:23:50.516Z,88.60
2018-04-25T03:26:18.014Z,88.50
2018-04-25T03:28:45.522Z,88.80
2018-04-25T03:31:13.006Z,88.70
2018-04-25T03:33:40.513Z,88.40
2018-04-25T03:36:07.998Z,88.50
2018-04-25T03:38:35.493Z,88.60
2018-04-25T03:41:03.774Z,88.10
2018-04-25T03:43:31.252Z,88.00
2018-04-25T03:45:58.735Z,88.30
2018-04-25T03:48:26.982Z,88.30
2018-04-25T03:50:54.482Z,88.30
2018-04-25T03:53:21.961Z,88.30
2018-04-25T03:55:49.461Z,88.20
2018-04-25T03:58:16.939Z,88.00
2018-04-25T04:00:44.437Z,87.70
2018-04-25T04:03:11.920Z,88.10
2018-04-25T04:05:39.412Z,88.20
2018-04-25T04:08:06.894Z,88.20
2018-04-25T04:10:34.419Z,88.10
2018-04-25T04:13:01.984Z,87.90
2018-04-25T04:15:29.428Z,87.70
2018-04-25T04:17:56.917Z,87.50
2018-04-25T04:20:24.413Z,87.40
2018-04-25T04:22:51.901Z,87.30
2018-04-25T04:25:19.394Z,87.60
2018-04-25T04:27:46.880Z,87.50
2018-04-25T04:30:14.378Z,87.90
2018-04-25T04:32:42.631Z,87.90
2018-04-25T04:35:10.137Z,87.80
2018-04-25T04:37:37.617Z,87.70
2018-04-25T04:40:05.146Z,87.80
2018-04-25T04:42:32.633Z,87.70
2018-04-25T04:45:00.132Z,86.50
2018-04-25T04:47:28.390Z,86.80
2018-04-25T04:49:55.901Z,87.90
2018-04-25T04:52:23.381Z,87.40
2018-04-25T04:54:50.872Z,87.30
2018-04-25T04:57:18.372Z,88.10
2018-04-25T04:59:45.914Z,87.60
2018-04-25T05:02:13.396Z,87.10
2018-04-25T05:04:40.908Z,86.80
2018-04-25T05:07:08.416Z,86.60
2018-04-25T05:09:35.908Z,86.30
2018-04-25T05:12:03.409Z,86.40
2018-04-25T05:14:30.901Z,86.80
2018-04-25T05:16:58.405Z,86.70
2018-04-25T05:19:25.888Z,86.70
2018-04-25T05:21:53.392Z,89.90
2018-04-25T05:24:20.959Z,87.70
2018-04-25T05:26:48.401Z,86.00
2018-04-25T05:29:15.889Z,88.90
2018-04-25T05:31:44.396Z,87.40
2018-04-25T05:34:11.861Z,84.90
2018-04-25T05:36:39.365Z,83.90
2018-04-25T05:39:06.856Z,83.70
2018-04-25T05:41:34.353Z,82.90
2018-04-25T05:44:01.845Z,82.60
2018-04-25T05:46:29.346Z,82.10
2018-04-25T05:48:56.839Z,82.00
2018-04-25T05:51:24.346Z,81.70
2018-04-25T05:53:51.833Z,81.30
2018-04-25T05:56:19.346Z,81.00
2018-04-25T05:58:46.846Z,80.40
2018-04-25T06:01:15.118Z,79.60
2018-04-25T06:03:42.607Z,79.60
2018-04-25T06:06:10.121Z,79.80
2018-04-25T06:08:37.608Z,78.70
2018-04-25T06:11:05.093Z,77.70
2018-04-25T06:13:32.590Z,76.20
2018-04-25T06:16:00.081Z,75.30
2018-04-25T06:18:27.582Z,75.90
2018-04-25T06:20:55.064Z,75.80
2018-04-25T06:23:22.572Z,75.00
2018-04-25T06:25:50.052Z,73.60
2018-04-25T06:28:17.626Z,73.60
2018-04-25T06:30:45.069Z,73.40
2018-04-25T06:33:12.574Z,73.90
2018-04-25T06:35:40.821Z,72.70
2018-04-25T06:38:09.097Z,71.70
2018-04-25T06:40:36.580Z,71.60
2018-04-25T06:43:04.081Z,71.90
2018-04-25T06:45:31.573Z,70.60
2018-04-25T06:47:59.076Z,70.80
2018-04-25T06:50:26.562Z,71.20
2018-04-25T06:52:54.061Z,70.60
2018-04-25T06:55:21.552Z,68.70
2018-04-25T06:57:49.082Z,69.50
2018-04-25T07:00:16.569Z,68.70
2018-04-25T07:02:44.077Z,69.00
2018-04-25T07:05:11.567Z,68.30
2018-04-25T07:07:39.074Z,67.40
2018-04-25T07:10:06.563Z,67.70
2018-04-25T07:12:34.072Z,66.00
2018-04-25T07:15:01.565Z,65.80
2018-04-25T07:17:29.849Z,65.80
2018-04-25T07:19:57.336Z,65.70
2018-04-25T07:22:24.876Z,64.80
2018-04-25T07:24:52.352Z,62.90
2018-04-25T07:27:19.856Z,64.30
2018-04-25T07:29:47.350Z,62.10
2018-04-25T07:32:14.832Z,62.30
2018-04-25T07:34:42.333Z,62.50
2018-04-25T07:37:09.822Z,61.50
2018-04-25T07:39:37.320Z,61.80
2018-04-25T07:42:04.810Z,60.80
2018-04-25T07:44:32.316Z,60.80
2018-04-25T07:46:59.813Z,61.60
2018-04-25T07:49:27.321Z,60.50
2018-04-25T07:51:54.809Z,58.90
2018-04-25T07:54:22.305Z,60.80
2018-04-25T07:56:49.785Z,61.70
2018-04-25T07:59:17.293Z,59.40
2018-04-25T08:01:44.776Z,59.10
2018-04-25T08:04:12.281Z,58.20
2018-04-25T08:06:39.761Z,57.90
2018-04-25T08:09:07.265Z,57.30
2018-04-25T08:11:34.750Z,56.20
2018-04-25T08:14:13.909Z,56.50
2018-04-25T08:16:53.871Z,56.00
2018-04-25T08:19:33.169Z,56.00
2018-04-25T08:22:00.649Z,55.90
2018-04-25T08:24:28.149Z,56.90
2018-04-25T08:26:55.640Z,55.30
2018-04-25T08:29:23.148Z,56.70
2018-04-25T08:31:50.637Z,55.50
2018-04-25T08:34:18.219Z,57.10
2018-04-25T08:36:45.638Z,56.70
2018-04-25T08:39:13.216Z,57.10
2018-04-25T08:41:40.641Z,55.80
2018-04-25T08:44:08.151Z,55.50
2018-04-25T08:46:35.645Z,54.90
2018-04-25T08:49:03.144Z,54.50
2018-04-25T08:51:30.630Z,54.20
2018-04-25T08:53:58.153Z,55.20
2018-04-25T08:56:25.633Z,54.70
2018-04-25T08:58:53.119Z,55.30
2018-04-25T09:01:20.634Z,54.40
2018-04-25T09:03:48.124Z,53.00
2018-04-25T09:06:15.624Z,52.20
2018-04-25T09:08:43.112Z,52.60
2018-04-25T09:11:10.624Z,53.40
2018-04-25T09:13:38.109Z,53.70
2018-04-25T09:16:05.608Z,53.10
2018-04-25T09:18:33.094Z,53.30
2018-04-25T09:21:00.601Z,53.00
2018-04-25T09:23:28.097Z,52.20
2018-04-25T09:25:55.596Z,52.60
2018-04-25T09:28:23.086Z,52.80
2018-04-25T09:30:50.590Z,53.60
2018-04-25T09:33:18.078Z,51.90
2018-04-25T09:35:45.577Z,52.90
2018-04-25T09:38:13.069Z,52.90
2018-04-25T09:40:40.575Z,52.50
2018-04-25T09:43:08.065Z,53.20
2018-04-25T09:45:35.568Z,51.00
2018-04-25T09:48:03.057Z,51.90
2018-04-25T09:50:30.560Z,49.30
2018-04-25T09:52:58.054Z,47.30
2018-04-25T09:55:25.557Z,46.70
2018-04-25T09:57:53.127Z,46.40
2018-04-25T10:00:20.561Z,46.30
2018-04-25T10:02:53.717Z,47.20
2018-04-25T10:05:21.234Z,47.30
2018-04-25T10:07:49.486Z,49.00
2018-04-25T10:10:16.981Z,48.90
2018-04-25T10:12:44.484Z,49.50
2018-04-25T10:15:12.000Z,48.50
2018-04-25T10:17:39.485Z,47.90
2018-04-25T10:20:06.974Z,46.80
2018-04-25T10:22:34.482Z,46.80
2018-04-25T10:25:01.969Z,44.20
2018-04-25T10:27:29.472Z,46.00
2018-04-25T10:29:56.954Z,45.60
2018-04-25T10:32:24.466Z,47.20
2018-04-25T10:34:51.953Z,47.00
2018-04-25T10:37:19.453Z,45.80
2018-04-25T10:39:46.932Z,45.20
2018-04-25T10:42:14.429Z,45.90
2018-04-25T10:44:41.917Z,45.10
2018-04-25T10:47:09.430Z,44.40
2018-04-25T10:49:36.930Z,45.70
2018-04-25T10:52:04.441Z,43.90
2018-04-25T10:54:31.925Z,43.30
2018-04-25T10:56:59.437Z,43.40
2018-04-25T10:59:26.923Z,43.60
2018-04-25T11:01:54.412Z,43.60
2018-04-25T11:04:21.923Z,44.60
2018-04-25T11:06:49.418Z,44.70
2018-04-25T11:09:16.921Z,45.20
2018-04-25T11:11:44.409Z,45.40
2018-04-25T11:14:11.915Z,45.80
2018-04-25T11:16:39.400Z,45.00
2018-04-25T11:19:06.921Z,44.00
2018-04-25T11:21:34.414Z,44.00
2018-04-25T11:24:01.919Z,45.20
2018-04-25T11:26:29.421Z,46.80
2018-04-25T11:28:56.953Z,46.60
2018-04-25T11:31:24.445Z,46.00
2018-04-25T11:33:51.948Z,47.30
2018-04-25T11:36:19.436Z,45.20
2018-04-25T11:38:46.953Z,46.70
2018-04-25T11:41:14.442Z,47.50
2018-04-25T11:43:41.953Z,45.60
2018-04-25T11:46:09.444Z,46.70
2018-04-25T11:48:36.949Z,47.90
2018-04-25T11:51:04.432Z,47.00
2018-04-25T11:53:32.717Z,47.10
2018-04-25T11:56:00.198Z,47.10
2018-04-25T11:58:28.478Z,46.30
2018-04-25T12:00:55.960Z,46.20
2018-04-25T12:03:23.471Z,46.10
2018-04-25T12:05:50.956Z,44.20
2018-04-25T12:08:18.449Z,45.10
2018-04-25T12:10:45.956Z,44.70
2018-04-25T12:13:13.454Z,43.70
2018-04-25T12:15:40.958Z,45.10
2018-04-25T12:18:08.450Z,43.40
2018-04-25T12:20:35.958Z,44.80
2018-04-25T12:23:03.440Z,42.50
2018-04-25T12:25:30.947Z,43.20
2018-04-25T12:27:58.449Z,44.00
2018-04-25T12:30:26.721Z,43.90
2018-04-25T12:32:54.209Z,43.90
2018-04-25T12:35:21.794Z,44.00
2018-04-25T12:37:49.217Z,42.70
2018-04-25T12:40:16.720Z,42.40
2018-04-25T12:42:44.215Z,42.50
2018-04-25T12:45:11.717Z,42.30
2018-04-25T12:47:39.200Z,42.80
2018-04-25T12:50:06.712Z,43.00
2018-04-25T12:52:34.193Z,42.60
2018-04-25T12:55:01.696Z,43.20
2018-04-25T12:57:29.180Z,43.40
2018-04-25T12:59:56.688Z,44.70
2018-04-25T13:02:24.954Z,45.40
2018-04-25T13:04:52.448Z,45.30
2018-04-25T13:07:19.941Z,45.30
2018-04-25T13:09:47.437Z,45.60
2018-04-25T13:12:14.924Z,44.80
2018-04-25T13:14:42.424Z,44.60
2018-04-25T13:17:09.912Z,44.80
2018-04-25T13:19:37.407Z,45.20
2018-04-25T13:22:04.908Z,45.70
2018-04-25T13:24:32.398Z,46.00
2018-04-25T13:26:59.901Z,45.70
2018-04-25T13:29:27.386Z,46.90
2018-04-25T13:31:54.881Z,46.90
2018-04-25T13:34:22.375Z,47.60
2018-04-25T13:36:49.877Z,46.80
2018-04-25T13:39:17.361Z,46.20
2018-04-25T13:41:44.872Z,46.50
2018-04-25T13:44:13.125Z,47.20
2018-04-25T13:46:40.712Z,47.30
2018-04-25T13:49:08.120Z,48.30
2018-04-25T13:51:35.633Z,48.70
2018-04-25T13:54:03.114Z,49.10
2018-04-25T13:56:30.613Z,49.60
2018-04-25T13:58:58.101Z,50.50
2018-04-25T14:01:25.607Z,50.90
2018-04-25T14:03:53.094Z,51.30
2018-04-25T14:06:20.606Z,51.80
2018-04-25T14:08:48.093Z,51.00
2018-04-25T14:11:15.607Z,52.30
2018-04-25T14:13:43.101Z,52.10
2018-04-25T14:16:10.616Z,52.30
2018-04-25T14:18:38.113Z,51.70
2018-04-25T14:21:05.620Z,51.40
2018-04-25T14:23:33.101Z,52.40
2018-04-25T14:26:01.389Z,53.00
2018-04-25T14:28:28.886Z,53.00
2018-04-25T14:30:56.374Z,51.50
2018-04-25T14:33:23.885Z,51.40
2018-04-25T14:35:51.369Z,51.80
2018-04-25T14:38:18.868Z,52.00
2018-04-25T14:40:46.353Z,52.10
2018-04-25T14:43:13.850Z,51.10
2018-04-25T14:45:42.097Z,52.10
2018-04-25T14:48:09.592Z,52.10
2018-04-25T14:50:37.081Z,51.20
2018-04-25T14:53:04.581Z,50.70
2018-04-25T14:55:32.072Z,50.60
2018-04-25T14:57:59.581Z,51.40
2018-04-25T15:00:27.065Z,50.50
2018-04-25T15:02:54.573Z,50.60
2018-04-25T15:05:22.049Z,50.40
2018-04-25T15:07:49.549Z,50.50
2018-04-25T15:10:17.030Z,50.00
2018-04-25T15:12:44.524Z,49.80
2018-04-25T15:15:12.018Z,51.10
2018-04-25T15:17:40.285Z,49.80
2018-04-25T15:20:07.802Z,49.80
2018-04-25T15:22:35.290Z,49.40
2018-04-25T15:25:02.773Z,48.10
2018-04-25T15:27:31.049Z,48.30
2018-04-25T15:29:58.529Z,48.30
2018-04-25T15:32:26.045Z,48.10
2018-04-25T15:34:53.529Z,47.80
2018-04-25T15:37:21.028Z,48.70
2018-04-25T15:39:48.537Z,48.50
2018-04-25T15:42:16.792Z,49.00
2018-04-25T15:44:44.285Z,49.60
2018-04-25T15:47:11.773Z,49.80
2018-04-25T15:49:39.273Z,50.00
2018-04-25T15:52:06.761Z,49.40
2018-04-25T15:54:34.437Z,50.50
2018-04-25T15:57:01.934Z,50.40
2018-04-25T15:59:29.439Z,50.00
2018-04-25T16:01:56.922Z,50.00
2018-04-25T16:04:24.480Z,50.20
2018-04-25T16:06:51.965Z,51.30
2018-04-25T16:09:19.469Z,52.70
2018-04-25T16:11:46.953Z,52.70
2018-04-25T16:14:14.471Z,53.20
2018-04-25T16:16:41.964Z,53.40
2018-04-25T16:19:09.474Z,53.60
2018-04-25T16:21:37.002Z,54.30
2018-04-25T16:24:05.264Z,54.30
2018-04-25T16:26:32.745Z,54.20
2018-04-25T16:29:00.245Z,54.80
2018-04-25T16:31:27.752Z,54.80
2018-04-25T16:33:55.249Z,55.10
2018-04-25T16:36:22.733Z,55.50
2018-04-25T16:38:50.273Z,55.60
2018-04-25T16:41:17.757Z,56.00
2018-04-25T16:43:45.286Z,56.10
2018-04-25T16:46:12.786Z,56.30
2018-04-25T16:48:40.329Z,56.10
2018-04-25T16:51:07.828Z,56.30
2018-04-25T16:53:35.345Z,56.30
2018-04-25T16:56:02.842Z,57.00
2018-04-25T16:58:31.090Z,57.60
2018-04-25T17:00:58.585Z,57.60
2018-04-25T17:03:26.093Z,58.00
2018-04-25T17:05:53.599Z,58.10
2018-04-25T17:08:21.085Z,57.90
2018-04-25T17:10:48.585Z,58.30
2018-04-25T17:13:17.011Z,59.20
2018-04-25T17:15:44.519Z,58.50
2018-04-25T17:18:12.005Z,58.80
2018-04-25T17:20:39.549Z,58.30
2018-04-25T17:23:07.044Z,58.50
2018-04-25T17:25:34.568Z,58.00
2018-04-25T17:28:02.053Z,58.50
2018-04-25T17:30:29.594Z,58.40
2018-04-25T17:32:57.077Z,58.40
2018-04-25T17:35:24.579Z,58.10
2018-04-25T17:37:52.829Z,58.20
2018-04-25T17:40:20.341Z,58.10
2018-04-25T17:42:47.993Z,58.40
2018-04-25T17:45:15.441Z,58.70
2018-04-25T17:47:42.930Z,59.00
2018-04-25T17:50:10.474Z,59.20
2018-04-25T17:52:37.972Z,59.70
2018-04-25T17:55:05.549Z,59.90
2018-04-25T17:57:33.066Z,60.10
2018-04-25T18:00:01.391Z,60.70
2018-04-25T18:02:28.917Z,60.50
2018-04-25T18:04:56.523Z,60.70
2018-04-25T18:07:24.003Z,61.40
2018-04-25T18:09:51.497Z,61.40
2018-04-25T18:12:18.997Z,61.80
2018-04-25T18:14:46.479Z,62.30
2018-04-25T18:17:13.978Z,62.30
2018-04-25T18:19:41.466Z,62.80
2018-04-25T18:22:08.982Z,63.30
2018-04-25T18:24:36.514Z,63.70
2018-04-25T18:27:04.016Z,64.10
2018-04-25T18:29:31.549Z,64.50
2018-04-25T18:31:59.053Z,64.70
2018-04-25T18:34:26.551Z,65.20
2018-04-25T18:36:54.069Z,65.50
2018-04-25T18:39:21.557Z,65.70
2018-04-25T18:41:49.066Z,66.00
2018-04-25T18:44:16.565Z,66.30
2018-04-25T18:46:44.064Z,66.60
2018-04-25T18:49:11.551Z,66.80
2018-04-25T18:51:39.071Z,67.20
2018-04-25T18:54:06.620Z,67.50
2018-04-25T18:56:34.125Z,67.60
2018-04-25T18:59:01.604Z,68.10
2018-04-25T19:01:29.916Z,68.40
2018-04-25T19:03:58.185Z,68.50
2018-04-25T19:06:25.692Z,68.40
2018-04-25T19:08:53.177Z,68.90
2018-04-25T19:11:20.698Z,69.00
2018-04-25T19:13:48.180Z,69.30
2018-04-25T19:16:15.689Z,69.60
2018-04-25T19:18:43.952Z,70.10
2018-04-25T19:21:11.437Z,70.10
2018-04-25T19:23:38.936Z,70.30
2018-04-25T19:26:06.425Z,70.40
2018-04-25T19:28:33.942Z,70.20
2018-04-25T19:31:01.427Z,70.40
2018-04-25T19:33:28.994Z,70.30
2018-04-25T19:35:56.501Z,70.30
2018-04-25T19:38:24.029Z,70.70
2018-04-25T19:40:51.513Z,71.10
2018-04-25T19:43:19.008Z,71.60
2018-04-25T19:45:46.530Z,71.60
2018-04-25T19:48:14.030Z,71.60
2018-04-25T19:50:41.524Z,71.60
2018-04-25T19:53:09.035Z,71.50
2018-04-25T19:55:37.284Z,71.60
2018-04-25T19:58:04.849Z,71.50
2018-04-25T20:00:32.380Z,71.60
2018-04-25T20:02:59.885Z,71.70
2018-04-25T20:05:27.376Z,71.70
2018-04-25T20:07:54.942Z,71.50
2018-04-25T20:10:22.434Z,72.50
2018-04-25T20:12:49.957Z,71.90
2018-04-25T20:15:17.445Z,72.10
2018-04-25T20:17:44.993Z,72.10
2018-04-25T20:20:12.717Z,72.00
2018-04-25T20:22:40.169Z,71.10
2018-04-25T20:25:07.677Z,70.90
2018-04-25T20:27:35.161Z,70.10
2018-04-25T20:30:02.667Z,69.60
2018-04-25T20:32:30.161Z,69.70
2018-04-25T20:34:57.665Z,68.90
2018-04-25T20:37:25.150Z,68.70
2018-04-25T20:39:52.666Z,69.00
2018-04-25T20:42:20.153Z,68.30
2018-04-25T20:44:47.665Z,68.40
2018-04-25T20:47:15.150Z,68.60
2018-04-25T20:49:42.677Z,68.30
2018-04-25T20:52:10.160Z,68.60
2018-04-25T20:54:37.667Z,68.50
2018-04-25T20:57:05.182Z,68.30
2018-04-25T20:59:32.677Z,68.40
2018-04-25T21:02:00.163Z,67.70
2018-04-25T21:04:27.662Z,67.10
2018-04-25T21:06:55.145Z,67.30
2018-04-25T21:09:23.409Z,67.30
2018-04-25T21:11:50.891Z,67.30
2018-04-25T21:14:18.449Z,67.10
2018-04-25T21:16:45.947Z,66.80
2018-04-25T21:19:13.454Z,66.80
2018-04-25T21:21:40.937Z,66.90
2018-04-25T21:24:08.423Z,67.00
2018-04-25T21:26:35.946Z,67.30
2018-04-25T21:29:03.436Z,67.60
2018-04-25T21:31:30.977Z,67.80
2018-04-25T21:33:58.477Z,68.00
2018-04-25T21:36:25.977Z,68.20
2018-04-25T21:38:53.466Z,68.40
2018-04-25T21:41:20.970Z,68.70
2018-04-25T21:43:48.477Z,69.10
2018-04-25T21:46:15.992Z,69.80
2018-04-25T21:48:43.483Z,72.50
2018-04-25T21:51:10.999Z,73.60
2018-04-25T21:53:38.490Z,74.30
2018-04-25T21:56:06.000Z,74.50
2018-04-25T21:58:33.493Z,75.20
2018-04-25T22:01:00.994Z,75.60
2018-04-25T22:03:28.491Z,76.10
2018-04-25T22:05:55.992Z,76.50
2018-04-25T22:08:23.542Z,76.70
2018-04-25T22:10:51.049Z,76.70
2018-04-25T22:13:18.561Z,77.10
2018-04-25T22:15:46.065Z,77.50
2018-04-25T22:18:13.548Z,77.60
2018-04-25T22:20:41.049Z,78.00
2018-04-25T22:23:08.533Z,78.10
2018-04-25T22:25:36.038Z,78.40
2018-04-25T22:28:04.317Z,80.80
2018-04-25T22:30:31.832Z,80.80
2018-04-25T22:32:59.332Z,82.60
2018-04-25T22:35:26.850Z,84.10
2018-04-25T22:37:54.349Z,85.50
2018-04-25T22:40:21.836Z,87.30
2018-04-25T22:42:49.336Z,88.60
2018-04-25T22:45:16.822Z,89.40
2018-04-25T22:47:44.367Z,89.30
2018-04-25T22:50:11.866Z,89.10
2018-04-25T22:52:39.381Z,88.00
2018-04-25T22:55:06.894Z,86.90
2018-04-25T22:57:34.406Z,86.20
2018-04-25T23:00:01.948Z,87.20
2018-04-25T23:02:29.462Z,89.00
2018-04-25T23:04:56.941Z,89.90
2018-04-25T23:07:24.441Z,90.60
2018-04-25T23:09:51.970Z,91.40
2018-04-25T23:12:19.485Z,91.50
2018-04-25T23:14:46.993Z,91.70
2018-04-25T23:17:14.495Z,92.10
2018-04-25T23:19:41.975Z,92.20
2018-04-25T23:22:09.473Z,92.40
2018-04-25T23:24:36.973Z,92.10
2018-04-25T23:27:04.481Z,91.70
2018-04-25T23:29:31.997Z,91.60
2018-04-25T23:31:59.493Z,91.70
2018-04-25T23:34:26.973Z,91.80
2018-04-25T23:36:54.469Z,91.70
2018-04-25T23:39:21.952Z,91.80
2018-04-25T23:41:51.517Z,91.70
2018-04-25T23:44:19.014Z,91.90
2018-04-25T23:46:46.510Z,91.80
2018-04-25T23:49:14.002Z,91.60
2018-04-25T23:51:41.491Z,91.60
2018-04-25T23:54:08.989Z,91.40
2018-04-25T23:56:36.475Z,91.40
2018-04-25T23:59:04.772Z,92.00
